createdAt,value
2023-01-23T00:02:11.149Z,9.75
2023-01-23T00:04:38.323Z,9.68
2023-01-23T00:07:05.680Z,9.00
2023-01-23T00:09:33.009Z,9.73
2023-01-23T00:12:00.255Z,9.68
2023-01-23T00:14:27.491Z,9.40
2023-01-23T00:16:54.640Z,9.70
2023-01-23T00:19:21.795Z,9.25
2023-01-23T00:21:49.145Z,9.60
2023-01-23T00:24:16.363Z,9.57
2023-01-23T00:26:43.539Z,9.13
2023-01-23T00:29:10.840Z,10.52
2023-01-23T00:31:39.644Z,10.13
2023-01-23T00:34:08.555Z,10.00
2023-01-23T00:36:36.949Z,9.20
2023-01-23T00:39:06.592Z,9.15
2023-01-23T00:41:34.291Z,9.70
2023-01-23T00:44:01.729Z,10.93
2023-01-23T00:46:28.977Z,9.95
2023-01-23T00:48:56.208Z,9.88
2023-01-23T00:51:23.490Z,10.15
2023-01-23T00:53:50.891Z,9.80
2023-01-23T00:56:18.029Z,10.18
2023-01-23T00:58:45.461Z,10.35
2023-01-23T01:01:13.787Z,9.77
2023-01-23T01:03:41.005Z,9.75
2023-01-23T01:06:08.282Z,9.93
2023-01-23T01:08:35.428Z,10.05
2023-01-23T01:11:02.719Z,10.98
2023-01-23T01:13:29.842Z,11.18
2023-01-23T01:15:57.249Z,10.88
2023-01-23T01:18:24.535Z,10.45
2023-01-23T01:20:51.769Z,12.43
2023-01-23T01:23:19.061Z,10.45
2023-01-23T01:25:46.927Z,10.55
2023-01-23T01:28:14.463Z,10.63
2023-01-23T01:30:41.817Z,10.70
2023-01-23T01:33:08.965Z,11.52
2023-01-23T01:35:36.209Z,11.10
2023-01-23T01:38:03.417Z,10.38
2023-01-23T01:40:33.601Z,10.50
2023-01-23T01:43:02.202Z,10.68
2023-01-23T01:45:47.915Z,11.43
2023-01-23T01:48:15.552Z,10.75
2023-01-23T01:50:43.300Z,11.02
2023-01-23T01:53:11.479Z,11.38
2023-01-23T01:55:39.101Z,11.18
2023-01-23T01:58:08.891Z,11.63
2023-01-23T02:00:36.245Z,11.50
2023-01-23T02:03:03.840Z,11.43
2023-01-23T02:05:32.863Z,10.98
2023-01-23T02:08:09.574Z,12.05
2023-01-23T02:10:37.428Z,11.38
2023-01-23T02:13:18.835Z,12.25
2023-01-23T02:15:46.170Z,11.55
2023-01-23T02:18:13.442Z,11.88
2023-01-23T02:20:40.741Z,12.55
2023-01-23T02:23:09.556Z,12.07
2023-01-23T02:25:45.958Z,11.02
2023-01-23T02:28:14.234Z,12.82
2023-01-23T02:30:42.589Z,12.00
2023-01-23T02:33:32.788Z,13.48
2023-01-23T02:36:00.299Z,12.98
2023-01-23T02:38:28.965Z,11.88
2023-01-23T02:40:58.107Z,13.07
2023-01-23T02:43:26.550Z,12.70
2023-01-23T02:45:56.910Z,12.95
2023-01-23T02:48:24.297Z,12.68
2023-01-23T02:50:51.502Z,13.38
2023-01-23T02:53:18.698Z,13.88
2023-01-23T02:55:45.942Z,13.18
2023-01-23T02:58:31.789Z,12.65
2023-01-23T03:00:58.955Z,11.70
2023-01-23T03:03:26.201Z,13.35
2023-01-23T03:05:55.632Z,12.23
2023-01-23T03:08:22.801Z,11.80
2023-01-23T03:10:49.969Z,11.70
2023-01-23T03:13:17.084Z,12.45
2023-01-23T03:15:44.242Z,12.27
2023-01-23T03:18:13.447Z,12.35
2023-01-23T03:20:41.791Z,11.43
2023-01-23T03:23:09.236Z,12.77
2023-01-23T03:25:36.413Z,12.75
2023-01-23T03:28:05.988Z,12.13
2023-01-23T03:30:33.233Z,13.63
2023-01-23T03:33:00.386Z,13.30
2023-01-23T03:35:27.546Z,14.52
2023-01-23T03:37:54.675Z,13.77
2023-01-23T03:40:41.820Z,15.48
2023-01-23T03:43:09.198Z,15.07
2023-01-23T03:45:36.478Z,15.43
2023-01-23T03:48:03.603Z,15.63
2023-01-23T03:50:30.718Z,16.38
2023-01-23T03:52:57.873Z,16.02
2023-01-23T03:55:25.043Z,15.90
2023-01-23T03:57:52.251Z,15.20
2023-01-23T04:00:20.079Z,15.68
2023-01-23T04:02:47.351Z,15.40
2023-01-23T04:05:14.540Z,16.30
2023-01-23T04:07:41.713Z,16.30
2023-01-23T04:10:10.359Z,17.63
2023-01-23T04:12:39.210Z,16.75
2023-01-23T04:15:06.615Z,17.48
2023-01-23T04:17:33.808Z,18.88
2023-01-23T04:20:00.934Z,17.42
2023-01-23T04:22:28.207Z,17.98
2023-01-23T04:24:55.351Z,16.48
2023-01-23T04:27:22.609Z,18.17
2023-01-23T04:29:49.881Z,18.60
2023-01-23T04:32:17.052Z,16.88
2023-01-23T04:34:44.151Z,18.40
2023-01-23T04:37:11.311Z,17.52
2023-01-23T04:39:38.515Z,18.27
2023-01-23T04:42:05.751Z,18.15
2023-01-23T04:44:32.881Z,17.67
2023-01-23T04:47:00.352Z,19.17
2023-01-23T04:49:27.495Z,18.73
2023-01-23T04:51:54.879Z,19.38
2023-01-23T04:54:22.165Z,18.10
2023-01-23T04:56:49.298Z,18.80
2023-01-23T04:59:16.843Z,18.95
2023-01-23T05:01:44.569Z,17.90
2023-01-23T05:04:11.709Z,18.65
2023-01-23T05:06:38.900Z,16.17
2023-01-23T05:09:07.044Z,16.83
2023-01-23T05:11:34.251Z,17.92
2023-01-23T05:14:01.401Z,18.02
2023-01-23T05:16:28.750Z,17.95
2023-01-23T05:18:56.028Z,17.42
2023-01-23T05:21:23.302Z,16.88
2023-01-23T05:23:50.515Z,16.10
2023-01-23T05:26:17.776Z,15.80
2023-01-23T05:28:45.037Z,16.58
2023-01-23T05:31:13.833Z,16.15
2023-01-23T05:33:41.117Z,16.38
2023-01-23T05:36:08.510Z,17.30
2023-01-23T05:38:36.038Z,16.95
2023-01-23T05:41:03.254Z,16.55
2023-01-23T05:43:30.405Z,16.70
2023-01-23T05:46:00.778Z,17.25
2023-01-23T05:48:28.123Z,17.52
2023-01-23T05:50:55.335Z,17.77
2023-01-23T05:53:22.501Z,16.95
2023-01-23T05:55:49.665Z,15.23
2023-01-23T05:58:16.843Z,17.83
2023-01-23T06:00:43.973Z,16.55
2023-01-23T06:03:11.204Z,17.80
2023-01-23T06:05:38.472Z,17.45
2023-01-23T06:08:05.705Z,17.23
2023-01-23T06:10:32.932Z,17.13
2023-01-23T06:13:00.093Z,19.90
2023-01-23T06:15:27.235Z,18.27
2023-01-23T06:17:54.396Z,18.30
2023-01-23T06:20:21.959Z,18.67
2023-01-23T06:22:49.432Z,18.58
2023-01-23T06:25:18.390Z,23.48
2023-01-23T06:27:45.541Z,24.88
2023-01-23T06:30:12.965Z,31.40
2023-01-23T06:32:40.477Z,20.80
2023-01-23T06:35:07.816Z,19.73
2023-01-23T06:37:35.053Z,18.23
2023-01-23T06:40:02.296Z,27.25
2023-01-23T06:42:29.527Z,24.60
2023-01-23T06:44:56.823Z,22.20
2023-01-23T06:47:24.424Z,22.48
2023-01-23T06:49:51.524Z,24.00
2023-01-23T06:52:18.755Z,21.67
2023-01-23T06:54:45.858Z,29.58
2023-01-23T06:57:13.424Z,20.48
2023-01-23T06:59:40.985Z,21.08
2023-01-23T07:02:09.550Z,20.98
2023-01-23T07:04:38.792Z,24.58
2023-01-23T07:07:06.026Z,20.15
2023-01-23T07:09:33.351Z,22.88
2023-01-23T07:12:00.538Z,20.27
2023-01-23T07:14:28.694Z,18.65
2023-01-23T07:16:55.921Z,19.92
2023-01-23T07:19:23.224Z,20.02
2023-01-23T07:21:50.466Z,21.88
2023-01-23T07:24:17.889Z,18.95
2023-01-23T07:26:45.035Z,20.90
2023-01-23T07:29:12.297Z,19.90
2023-01-23T07:31:39.493Z,20.33
2023-01-23T07:34:06.789Z,21.15
2023-01-23T07:36:33.972Z,21.65
2023-01-23T07:39:01.170Z,20.42
2023-01-23T07:41:28.323Z,20.17
2023-01-23T07:43:55.444Z,19.00
2023-01-23T07:46:25.695Z,18.92
2023-01-23T07:48:53.317Z,19.05
2023-01-23T07:51:20.458Z,18.23
2023-01-23T07:53:47.596Z,18.63
2023-01-23T07:56:14.790Z,18.95
2023-01-23T07:58:41.942Z,22.90
2023-01-23T08:01:12.541Z,20.65
2023-01-23T08:03:39.811Z,21.55
2023-01-23T08:06:07.226Z,20.10
2023-01-23T08:08:34.565Z,21.02
2023-01-23T08:11:04.381Z,20.33
2023-01-23T08:13:31.509Z,21.85
2023-01-23T08:15:59.388Z,20.17
2023-01-23T08:18:27.022Z,21.23
2023-01-23T08:20:55.076Z,20.80
2023-01-23T08:23:25.408Z,20.80
2023-01-23T08:25:55.697Z,32.65
2023-01-23T08:28:23.222Z,24.42
2023-01-23T08:30:50.732Z,29.52
2023-01-23T08:33:18.214Z,27.33
2023-01-23T08:35:52.701Z,26.95
2023-01-23T08:38:20.232Z,21.50
2023-01-23T08:40:48.338Z,22.80
2023-01-23T08:43:16.091Z,33.85
2023-01-23T08:45:46.649Z,19.98
2023-01-23T08:48:13.979Z,21.60
2023-01-23T08:50:41.230Z,19.95
2023-01-23T08:53:08.736Z,17.58
2023-01-23T08:55:37.518Z,20.35
2023-01-23T08:58:04.706Z,19.88
2023-01-23T09:00:31.876Z,17.88
2023-01-23T09:03:02.631Z,18.77
2023-01-23T09:05:30.238Z,18.70
2023-01-23T09:08:00.061Z,18.10
2023-01-23T09:10:27.537Z,19.45
2023-01-23T09:12:55.150Z,17.17
2023-01-23T09:15:22.661Z,18.67
2023-01-23T09:17:50.357Z,17.90
2023-01-23T09:20:17.861Z,18.85
2023-01-23T09:22:45.602Z,18.08
2023-01-23T09:25:14.256Z,19.83
2023-01-23T09:27:41.493Z,17.90
2023-01-23T09:30:08.943Z,18.38
2023-01-23T09:32:36.192Z,17.88
2023-01-23T09:35:03.361Z,18.58
2023-01-23T09:37:51.077Z,19.65
2023-01-23T09:40:20.195Z,18.55
2023-01-23T09:42:47.682Z,19.52
2023-01-23T09:45:18.763Z,19.17
2023-01-23T09:48:06.157Z,19.45
2023-01-23T09:50:37.469Z,19.13
2023-01-23T09:53:15.100Z,20.10
2023-01-23T09:55:49.182Z,18.83
2023-01-23T09:58:23.229Z,18.75
2023-01-23T10:00:51.853Z,18.17
2023-01-23T10:03:19.398Z,17.98
2023-01-23T10:05:46.547Z,18.90
2023-01-23T10:08:16.799Z,18.63
2023-01-23T10:10:58.210Z,18.27
2023-01-23T10:13:44.686Z,18.58
2023-01-23T10:16:41.302Z,19.30
2023-01-23T10:19:21.725Z,17.60
2023-01-23T10:22:04.957Z,18.40
2023-01-23T10:27:38.275Z,18.20
2023-01-23T10:30:08.664Z,19.30
2023-01-23T10:32:45.782Z,18.20
2023-01-23T10:35:15.218Z,17.30
2023-01-23T10:37:46.313Z,16.83
2023-01-23T10:40:16.013Z,17.95
2023-01-23T10:42:43.326Z,18.23
2023-01-23T10:45:16.487Z,20.13
2023-01-23T10:47:47.884Z,17.88
2023-01-23T10:50:15.883Z,18.13
2023-01-23T10:52:44.726Z,16.75
2023-01-23T10:55:21.152Z,17.77
2023-01-23T10:57:49.665Z,16.52
2023-01-23T11:00:36.997Z,16.85
2023-01-23T11:03:19.448Z,16.70
2023-01-23T11:05:54.839Z,18.40
2023-01-23T11:08:25.224Z,16.67
2023-01-23T11:10:52.417Z,19.52
2023-01-23T11:13:29.733Z,16.92
2023-01-23T11:15:57.541Z,21.38
2023-01-23T11:18:35.568Z,19.02
2023-01-23T11:21:03.067Z,28.00
2023-01-23T11:23:31.250Z,18.15
2023-01-23T11:25:58.563Z,18.05
2023-01-23T11:28:36.455Z,114.40
2023-01-23T11:31:14.595Z,59.72
2023-01-23T11:33:42.719Z,29.60
2023-01-23T11:36:19.151Z,41.03
2023-01-23T11:38:53.115Z,57.80
2023-01-23T11:41:20.999Z,39.88
2023-01-23T11:43:48.239Z,38.38
2023-01-23T11:46:34.382Z,24.95
2023-01-23T11:49:13.720Z,25.50
2023-01-23T11:51:47.020Z,30.02
2023-01-23T11:54:23.534Z,20.77
2023-01-23T11:57:09.679Z,21.77
2023-01-23T11:59:53.108Z,30.10
2023-01-23T12:02:23.571Z,24.20
2023-01-23T12:05:09.923Z,36.28
2023-01-23T12:07:56.199Z,33.17
2023-01-23T12:10:25.795Z,35.58
2023-01-23T12:13:15.572Z,28.58
2023-01-23T12:15:46.148Z,21.58
2023-01-23T12:18:32.118Z,25.38
2023-01-23T12:21:02.972Z,19.05
2023-01-23T12:23:44.695Z,22.90
2023-01-23T12:26:12.210Z,28.90
2023-01-23T12:28:58.215Z,21.80
2023-01-23T12:31:37.744Z,23.15
2023-01-23T12:34:23.573Z,20.58
2023-01-23T12:37:10.227Z,21.58
2023-01-23T12:39:42.500Z,19.33
2023-01-23T12:42:12.904Z,27.02
2023-01-23T12:44:40.054Z,22.45
2023-01-23T12:47:15.013Z,23.13
2023-01-23T12:49:49.905Z,19.42
2023-01-23T12:52:28.727Z,18.88
2023-01-23T12:55:04.354Z,22.80
2023-01-23T12:57:59.668Z,19.00
2023-01-23T13:00:37.922Z,17.80
2023-01-23T13:03:07.862Z,19.35
2023-01-23T13:05:40.872Z,18.98
2023-01-23T13:08:12.730Z,19.05
2023-01-23T13:11:08.658Z,18.77
2023-01-23T13:13:35.917Z,19.58
2023-01-23T13:16:16.114Z,19.10
2023-01-23T13:19:19.127Z,19.45
2023-01-23T13:22:05.800Z,18.77
2023-01-23T13:25:07.046Z,19.63
2023-01-23T13:27:40.073Z,21.63
2023-01-23T13:30:26.165Z,77.43
2023-01-23T13:32:54.663Z,21.13
2023-01-23T13:35:40.196Z,23.77
2023-01-23T13:38:22.387Z,42.00
2023-01-23T13:41:04.703Z,43.90
2023-01-23T13:43:52.454Z,26.88
2023-01-23T13:46:25.708Z,27.52
2023-01-23T14:20:29.085Z,24.13
2023-01-23T14:22:56.314Z,23.00
2023-01-23T14:25:23.834Z,24.90
2023-01-23T14:28:02.656Z,24.80
2023-01-23T14:30:31.621Z,23.33
2023-01-23T14:33:01.711Z,23.95
2023-01-23T14:35:30.300Z,23.42
2023-01-23T14:37:58.824Z,23.58
2023-01-23T14:40:28.484Z,24.02
2023-01-23T14:43:09.515Z,23.55
2023-01-23T14:45:37.175Z,24.05
2023-01-23T14:48:07.176Z,23.70
2023-01-23T14:50:34.793Z,23.70
2023-01-23T14:53:03.582Z,25.05
2023-01-23T14:55:31.229Z,26.65
2023-01-23T14:57:59.776Z,26.77
2023-01-23T15:00:27.481Z,25.77
2023-01-23T15:02:56.399Z,24.98
2023-01-23T15:05:30.175Z,24.58
2023-01-23T15:08:06.000Z,25.85
2023-01-23T15:10:36.821Z,27.15
2023-01-23T15:13:05.464Z,29.10
2023-01-23T15:15:33.523Z,30.27
2023-01-23T15:18:01.703Z,36.33
2023-01-23T15:20:41.240Z,27.02
2023-01-23T15:23:28.405Z,25.65
2023-01-23T15:26:12.530Z,26.70
2023-01-23T15:28:41.616Z,27.75
2023-01-23T15:31:21.092Z,30.23
2023-01-23T15:33:51.062Z,35.17
2023-01-23T15:36:24.922Z,27.45
2023-01-23T15:38:52.494Z,31.77
2023-01-23T15:41:33.895Z,36.28
2023-01-23T15:44:01.673Z,39.08
2023-01-23T15:46:28.853Z,36.17
2023-01-23T15:48:55.975Z,31.58
2023-01-23T15:51:25.529Z,32.88
2023-01-23T15:53:52.852Z,30.20
2023-01-23T15:56:27.195Z,31.30
2023-01-23T15:58:54.495Z,25.90
2023-01-23T16:01:21.780Z,30.15
2023-01-23T16:03:48.981Z,33.33
2023-01-23T16:06:20.983Z,28.73
2023-01-23T16:08:55.068Z,28.20
2023-01-23T16:11:32.182Z,40.53
2023-01-23T16:13:59.498Z,26.10
2023-01-23T16:16:27.068Z,25.67
2023-01-23T16:18:54.346Z,26.88
2023-01-23T16:21:26.016Z,31.70
2023-01-23T16:23:55.955Z,28.70
2023-01-23T16:26:24.350Z,29.38
2023-01-23T16:28:52.867Z,30.73
2023-01-23T16:31:21.557Z,33.28
2023-01-23T16:33:48.815Z,34.20
2023-01-23T16:36:19.483Z,31.50
2023-01-23T16:38:55.994Z,30.40
2023-01-23T16:41:23.712Z,39.40
2023-01-23T16:43:50.893Z,33.20
2023-01-23T16:46:19.495Z,29.70
2023-01-23T16:48:46.747Z,34.33
2023-01-23T16:51:21.995Z,30.95
2023-01-23T16:53:54.766Z,31.40
2023-01-23T16:56:24.081Z,29.35
2023-01-23T16:58:51.392Z,30.42
2023-01-23T17:01:23.081Z,35.50
2023-01-23T17:03:58.387Z,31.50
2023-01-23T17:06:25.589Z,31.83
2023-01-23T17:08:53.664Z,32.20
2023-01-23T17:11:24.339Z,34.60
2023-01-23T17:13:55.371Z,32.08
2023-01-23T17:16:27.679Z,34.72
2023-01-23T17:18:55.553Z,42.15
2023-01-23T17:21:24.053Z,32.30
2023-01-23T17:23:51.413Z,29.55
2023-01-23T17:26:19.449Z,39.75
2023-01-23T17:28:46.679Z,29.40
2023-01-23T17:31:17.780Z,27.52
2023-01-23T17:33:45.095Z,30.02
2023-01-23T17:36:12.313Z,27.17
2023-01-23T17:38:40.423Z,31.10
2023-01-23T17:41:07.622Z,29.75
2023-01-23T17:43:34.935Z,34.00
2023-01-23T17:46:02.186Z,32.83
2023-01-23T17:48:31.516Z,31.13
2023-01-23T17:50:59.315Z,31.45
2023-01-23T17:53:27.963Z,30.20
2023-01-23T17:55:55.318Z,30.67
2023-01-23T17:58:23.698Z,30.73
2023-01-23T18:00:53.400Z,30.42
2023-01-23T18:03:21.836Z,30.30
2023-01-23T18:05:49.342Z,30.63
2023-01-23T18:08:18.233Z,31.15
2023-01-23T18:10:46.433Z,29.60
2023-01-23T18:13:23.018Z,31.45
2023-01-23T18:16:06.048Z,30.30
2023-01-23T18:18:40.765Z,29.13
2023-01-23T18:21:13.835Z,28.88
2023-01-23T18:23:41.326Z,29.83
2023-01-23T18:26:18.211Z,27.67
2023-01-23T18:29:11.298Z,26.58
2023-01-23T18:31:57.124Z,29.20
2023-01-23T18:34:24.281Z,27.85
2023-01-23T18:36:51.420Z,24.45
2023-01-23T18:39:32.766Z,24.88
2023-01-23T18:42:15.157Z,23.95
2023-01-23T18:44:45.733Z,23.88
2023-01-23T18:47:15.414Z,22.42
2023-01-23T18:49:42.940Z,23.02
2023-01-23T18:52:28.999Z,20.52
2023-01-23T18:55:03.690Z,23.17
2023-01-23T18:57:49.779Z,23.52
2023-01-23T19:00:20.160Z,20.15
2023-01-23T19:02:52.369Z,21.02
2023-01-23T19:05:22.919Z,21.45
2023-01-23T19:07:50.438Z,22.13
2023-01-23T19:10:47.565Z,19.65
2023-01-23T19:13:15.598Z,19.40
2023-01-23T19:16:01.908Z,19.50
2023-01-23T19:18:48.478Z,18.65
2023-01-23T19:21:20.757Z,20.33
2023-01-23T19:23:57.275Z,17.48
2023-01-23T19:26:25.567Z,18.20
2023-01-23T19:28:52.876Z,18.77
2023-01-23T19:31:23.829Z,19.73
2023-01-23T19:33:51.268Z,19.00
2023-01-23T19:36:19.315Z,19.75
2023-01-23T19:38:46.598Z,19.95
2023-01-23T19:41:24.697Z,20.13
2023-01-23T19:43:55.958Z,18.20
2023-01-23T19:46:23.320Z,18.52
2023-01-23T19:48:51.591Z,17.48
2023-01-23T19:51:20.158Z,19.25
2023-01-23T19:53:47.512Z,20.05
2023-01-23T19:56:15.853Z,20.20
2023-01-23T19:58:43.225Z,18.60
2023-01-23T20:01:20.016Z,19.88
2023-01-23T20:03:47.716Z,19.13
2023-01-23T20:06:15.144Z,19.40
2023-01-23T20:08:42.579Z,18.35
2023-01-23T20:11:13.275Z,18.42
2023-01-23T20:13:43.915Z,19.17
2023-01-23T20:16:18.431Z,20.95
2023-01-23T20:18:49.003Z,19.67
2023-01-23T20:21:17.201Z,16.75
2023-01-23T20:23:44.574Z,15.65
2023-01-23T20:26:13.039Z,15.57
2023-01-23T20:28:40.738Z,17.27
2023-01-23T20:31:10.024Z,17.02
2023-01-23T20:33:38.025Z,18.65
2023-01-23T20:36:05.886Z,16.95
2023-01-23T20:38:33.417Z,14.52
2023-01-23T20:41:04.768Z,16.88
2023-01-23T20:43:32.005Z,16.65
2023-01-23T20:45:59.241Z,13.75
2023-01-23T20:48:26.573Z,12.52
2023-01-23T20:50:57.875Z,14.50
2023-01-23T20:53:31.357Z,13.95
2023-01-23T20:55:59.698Z,13.73
2023-01-23T20:58:46.475Z,13.25
2023-01-23T21:01:13.884Z,12.40
2023-01-23T21:03:53.041Z,12.35
2023-01-23T21:06:20.282Z,10.15
2023-01-23T21:08:48.007Z,12.50
2023-01-23T21:11:16.315Z,12.88
2023-01-23T21:13:44.185Z,12.60
2023-01-23T21:16:15.560Z,13.38
2023-01-23T21:18:47.337Z,12.57
2023-01-23T21:21:16.292Z,13.13
2023-01-23T21:23:49.028Z,13.07
2023-01-23T21:26:17.786Z,13.52
2023-01-23T21:28:46.511Z,13.98
2023-01-23T21:31:15.187Z,14.90
2023-01-23T21:33:46.451Z,15.05
2023-01-23T21:36:14.719Z,13.10
2023-01-23T21:38:41.849Z,11.32
2023-01-23T21:41:08.948Z,11.52
2023-01-23T21:43:36.322Z,12.77
2023-01-23T21:46:03.890Z,12.77
2023-01-23T21:48:31.768Z,11.75
2023-01-23T21:51:10.236Z,11.73
2023-01-23T21:53:38.189Z,11.48
2023-01-23T21:56:06.017Z,10.88
2023-01-23T21:58:33.453Z,11.23
2023-01-23T22:01:20.139Z,9.38
2023-01-23T22:03:47.475Z,9.60
2023-01-23T22:06:14.734Z,10.65
2023-01-23T22:08:41.961Z,10.13
2023-01-23T22:11:09.743Z,11.27
2023-01-23T22:13:37.356Z,10.40
2023-01-23T22:16:04.995Z,10.82
2023-01-23T22:18:32.248Z,11.48
2023-01-23T22:21:00.706Z,11.07
2023-01-23T22:23:28.330Z,10.57
2023-01-23T22:26:00.173Z,11.88
2023-01-23T22:28:27.458Z,11.05
2023-01-23T22:30:54.779Z,10.70
2023-01-23T22:33:22.515Z,10.60
2023-01-23T22:35:51.008Z,10.48
2023-01-23T22:38:18.160Z,10.88
2023-01-23T22:40:45.281Z,11.00
2023-01-23T22:43:12.389Z,10.23
2023-01-23T22:45:39.568Z,9.93
2023-01-23T22:48:06.823Z,10.10
2023-01-23T22:50:34.014Z,9.57
2023-01-23T22:53:01.222Z,9.95
2023-01-23T22:55:28.307Z,8.70
2023-01-23T22:57:55.459Z,9.18
2023-01-23T23:00:22.645Z,9.80
2023-01-23T23:02:49.775Z,9.70
2023-01-23T23:05:16.904Z,10.40
2023-01-23T23:07:44.102Z,10.25
2023-01-23T23:10:12.023Z,10.25
2023-01-23T23:12:39.466Z,10.85
2023-01-23T23:15:06.885Z,10.50
2023-01-23T23:17:34.031Z,10.55
2023-01-23T23:20:01.253Z,11.40
2023-01-23T23:22:28.464Z,11.68
2023-01-23T23:24:55.641Z,11.85
2023-01-23T23:27:22.762Z,12.48
2023-01-23T23:29:49.865Z,13.35
2023-01-23T23:32:17.100Z,14.10
2023-01-23T23:34:44.976Z,12.40
2023-01-23T23:37:12.082Z,13.65
2023-01-23T23:39:39.281Z,12.07
2023-01-23T23:42:06.530Z,13.30
2023-01-23T23:44:33.628Z,15.00
2023-01-23T23:47:00.729Z,13.85
2023-01-23T23:49:27.915Z,13.52
2023-01-23T23:51:55.012Z,14.05
2023-01-23T23:54:22.148Z,13.30
2023-01-23T23:56:49.318Z,13.45
2023-01-23T23:59:16.962Z,14.05
